sensor_id;sensor_type;location;lat;lon;timestamp;P1;durP1;ratioP1;P2;durP2;ratioP2
56519;SDS011;42420;53.586;10.052;2023-01-31T00:00:11;21.00;;;3.28;;
56519;SDS011;42420;53.586;10.052;2023-01-31T00:05:13;15.25;;;2.55;;
56519;SDS011;42420;53.586;10.052;2023-01-31T00:10:10;12.48;;;2.28;;
56519;SDS011;42420;53.586;10.052;2023-01-31T00:15:10;16.15;;;2.78;;
56519;SDS011;42420;53.586;10.052;2023-01-31T00:20:13;14.95;;;2.30;;
56519;SDS011;42420;53.586;10.052;2023-01-31T00:25:21;18.10;;;2.55;;
56519;SDS011;42420;53.586;10.052;2023-01-31T00:30:24;17.45;;;3.10;;
56519;SDS011;42420;53.586;10.052;2023-01-31T00:35:24;12.48;;;2.30;;
56519;SDS011;42420;53.586;10.052;2023-01-31T00:40:29;13.43;;;2.08;;
56519;SDS011;42420;53.586;10.052;2023-01-31T00:45:28;12.93;;;1.67;;
56519;SDS011;42420;53.586;10.052;2023-01-31T00:50:25;13.07;;;2.25;;
56519;SDS011;42420;53.586;10.052;2023-01-31T00:55:26;16.52;;;2.20;;
56519;SDS011;42420;53.586;10.052;2023-01-31T01:00:28;10.20;;;1.88;;
56519;SDS011;42420;53.586;10.052;2023-01-31T01:05:25;11.48;;;1.50;;
56519;SDS011;42420;53.586;10.052;2023-01-31T01:10:22;13.80;;;2.15;;
56519;SDS011;42420;53.586;10.052;2023-01-31T01:15:24;14.30;;;1.85;;
56519;SDS011;42420;53.586;10.052;2023-01-31T01:20:21;11.55;;;1.52;;
56519;SDS011;42420;53.586;10.052;2023-01-31T01:25:18;11.52;;;2.05;;
56519;SDS011;42420;53.586;10.052;2023-01-31T01:35:16;7.65;;;1.55;;
56519;SDS011;42420;53.586;10.052;2023-01-31T01:40:13;6.85;;;1.10;;
56519;SDS011;42420;53.586;10.052;2023-01-31T01:45:13;10.68;;;1.50;;
56519;SDS011;42420;53.586;10.052;2023-01-31T01:50:22;7.97;;;1.80;;
56519;SDS011;42420;53.586;10.052;2023-01-31T01:55:27;10.13;;;2.00;;
56519;SDS011;42420;53.586;10.052;2023-01-31T02:00:27;12.40;;;1.80;;
56519;SDS011;42420;53.586;10.052;2023-01-31T02:05:27;14.68;;;2.38;;
56519;SDS011;42420;53.586;10.052;2023-01-31T02:10:30;19.35;;;2.55;;
56519;SDS011;42420;53.586;10.052;2023-01-31T02:15:31;15.30;;;2.53;;
56519;SDS011;42420;53.586;10.052;2023-01-31T02:25:59;17.08;;;2.47;;
56519;SDS011;42420;53.586;10.052;2023-01-31T02:37:17;18.65;;;2.80;;
56519;SDS011;42420;53.586;10.052;2023-01-31T02:43:26;18.40;;;2.55;;
56519;SDS011;42420;53.586;10.052;2023-01-31T02:49:02;15.25;;;2.05;;
56519;SDS011;42420;53.586;10.052;2023-01-31T02:54:44;15.60;;;2.40;;
56519;SDS011;42420;53.586;10.052;2023-01-31T03:00:22;14.23;;;2.05;;
56519;SDS011;42420;53.586;10.052;2023-01-31T03:05:19;13.73;;;2.00;;
56519;SDS011;42420;53.586;10.052;2023-01-31T03:15:32;13.35;;;2.53;;
56519;SDS011;42420;53.586;10.052;2023-01-31T03:25:57;18.50;;;2.20;;
56519;SDS011;42420;53.586;10.052;2023-01-31T03:41:30;13.80;;;2.08;;
56519;SDS011;42420;53.586;10.052;2023-01-31T03:52:09;13.82;;;2.47;;
56519;SDS011;42420;53.586;10.052;2023-01-31T03:57:18;18.33;;;2.20;;
56519;SDS011;42420;53.586;10.052;2023-01-31T04:02:17;14.55;;;2.53;;
56519;SDS011;42420;53.586;10.052;2023-01-31T04:07:15;14.07;;;2.40;;
56519;SDS011;42420;53.586;10.052;2023-01-31T04:12:13;16.42;;;2.58;;
56519;SDS011;42420;53.586;10.052;2023-01-31T04:17:10;16.17;;;3.38;;
56519;SDS011;42420;53.586;10.052;2023-01-31T04:22:07;16.13;;;2.53;;
56519;SDS011;42420;53.586;10.052;2023-01-31T04:27:08;17.75;;;2.22;;
56519;SDS011;42420;53.586;10.052;2023-01-31T04:32:05;13.27;;;2.47;;
56519;SDS011;42420;53.586;10.052;2023-01-31T04:37:02;11.73;;;2.65;;
56519;SDS011;42420;53.586;10.052;2023-01-31T04:41:58;13.63;;;1.83;;
56519;SDS011;42420;53.586;10.052;2023-01-31T04:51:52;15.82;;;2.80;;
56519;SDS011;42420;53.586;10.052;2023-01-31T04:56:48;21.17;;;3.15;;
56519;SDS011;42420;53.586;10.052;2023-01-31T05:02:38;14.85;;;2.08;;
56519;SDS011;42420;53.586;10.052;2023-01-31T05:08:25;13.98;;;2.55;;
56519;SDS011;42420;53.586;10.052;2023-01-31T05:14:00;14.05;;;2.05;;
56519;SDS011;42420;53.586;10.052;2023-01-31T05:20:15;16.00;;;2.35;;
56519;SDS011;42420;53.586;10.052;2023-01-31T05:26:09;12.63;;;2.08;;
56519;SDS011;42420;53.586;10.052;2023-01-31T05:31:45;13.15;;;2.17;;
56519;SDS011;42420;53.586;10.052;2023-01-31T05:49:51;11.10;;;2.08;;
56519;SDS011;42420;53.586;10.052;2023-01-31T05:54:48;25.98;;;3.67;;
56519;SDS011;42420;53.586;10.052;2023-01-31T05:59:45;17.65;;;3.53;;
56519;SDS011;42420;53.586;10.052;2023-01-31T06:04:43;24.13;;;2.92;;
56519;SDS011;42420;53.586;10.052;2023-01-31T06:10:11;19.27;;;3.22;;
56519;SDS011;42420;53.586;10.052;2023-01-31T06:15:48;18.13;;;2.72;;
56519;SDS011;42420;53.586;10.052;2023-01-31T06:20:51;20.65;;;3.47;;
56519;SDS011;42420;53.586;10.052;2023-01-31T06:25:49;19.08;;;2.88;;
56519;SDS011;42420;53.586;10.052;2023-01-31T06:30:47;19.10;;;3.05;;
56519;SDS011;42420;53.586;10.052;2023-01-31T06:35:52;17.60;;;2.80;;
56519;SDS011;42420;53.586;10.052;2023-01-31T06:40:48;20.77;;;2.80;;
56519;SDS011;42420;53.586;10.052;2023-01-31T06:45:57;17.45;;;3.72;;
56519;SDS011;42420;53.586;10.052;2023-01-31T06:51:01;18.00;;;3.13;;
56519;SDS011;42420;53.586;10.052;2023-01-31T06:55:58;15.25;;;3.53;;
56519;SDS011;42420;53.586;10.052;2023-01-31T07:00:54;15.90;;;3.30;;
56519;SDS011;42420;53.586;10.052;2023-01-31T07:05:54;20.48;;;2.80;;
56519;SDS011;42420;53.586;10.052;2023-01-31T07:10:51;21.30;;;2.65;;
56519;SDS011;42420;53.586;10.052;2023-01-31T07:15:51;18.38;;;2.67;;
56519;SDS011;42420;53.586;10.052;2023-01-31T07:20:54;20.52;;;3.13;;
56519;SDS011;42420;53.586;10.052;2023-01-31T07:25:56;20.88;;;3.00;;
56519;SDS011;42420;53.586;10.052;2023-01-31T07:30:52;17.33;;;3.28;;
56519;SDS011;42420;53.586;10.052;2023-01-31T07:35:49;17.65;;;2.88;;
56519;SDS011;42420;53.586;10.052;2023-01-31T07:40:47;20.95;;;4.03;;
56519;SDS011;42420;53.586;10.052;2023-01-31T07:45:48;18.13;;;3.10;;
56519;SDS011;42420;53.586;10.052;2023-01-31T07:50:45;17.17;;;3.20;;
56519;SDS011;42420;53.586;10.052;2023-01-31T07:55:42;17.52;;;3.67;;
56519;SDS011;42420;53.586;10.052;2023-01-31T08:00:42;30.33;;;4.55;;
56519;SDS011;42420;53.586;10.052;2023-01-31T08:06:01;18.17;;;4.05;;
56519;SDS011;42420;53.586;10.052;2023-01-31T08:11:07;15.38;;;4.13;;
56519;SDS011;42420;53.586;10.052;2023-01-31T08:16:09;18.25;;;4.03;;
56519;SDS011;42420;53.586;10.052;2023-01-31T08:21:37;25.77;;;4.28;;
56519;SDS011;42420;53.586;10.052;2023-01-31T08:26:35;22.50;;;5.07;;
56519;SDS011;42420;53.586;10.052;2023-01-31T08:31:52;16.48;;;3.95;;
56519;SDS011;42420;53.586;10.052;2023-01-31T08:36:59;19.52;;;4.10;;
56519;SDS011;42420;53.586;10.052;2023-01-31T08:42:11;22.58;;;4.45;;
56519;SDS011;42420;53.586;10.052;2023-01-31T08:47:35;20.00;;;4.78;;
56519;SDS011;42420;53.586;10.052;2023-01-31T08:52:32;16.15;;;4.00;;
56519;SDS011;42420;53.586;10.052;2023-01-31T08:57:44;20.45;;;4.40;;
56519;SDS011;42420;53.586;10.052;2023-01-31T09:16:07;19.65;;;4.78;;
56519;SDS011;42420;53.586;10.052;2023-01-31T09:21:40;19.35;;;3.88;;
56519;SDS011;42420;53.586;10.052;2023-01-31T09:28:10;19.75;;;4.47;;
56519;SDS011;42420;53.586;10.052;2023-01-31T09:39:59;14.68;;;4.00;;
56519;SDS011;42420;53.586;10.052;2023-01-31T10:22:16;13.52;;;4.25;;
56519;SDS011;42420;53.586;10.052;2023-01-31T10:29:00;14.38;;;4.30;;
56519;SDS011;42420;53.586;10.052;2023-01-31T10:40:43;9.73;;;5.13;;
56519;SDS011;42420;53.586;10.052;2023-01-31T10:45:53;13.02;;;4.80;;
56519;SDS011;42420;53.586;10.052;2023-01-31T10:51:59;12.73;;;5.38;;
56519;SDS011;42420;53.586;10.052;2023-01-31T10:57:50;13.82;;;4.55;;
56519;SDS011;42420;53.586;10.052;2023-01-31T11:03:11;10.00;;;4.15;;
56519;SDS011;42420;53.586;10.052;2023-01-31T11:09:22;14.27;;;4.28;;
56519;SDS011;42420;53.586;10.052;2023-01-31T11:38:55;13.38;;;4.32;;
56519;SDS011;42420;53.586;10.052;2023-01-31T12:09:24;8.55;;;3.50;;
56519;SDS011;42420;53.586;10.052;2023-01-31T12:15:45;10.18;;;3.00;;
56519;SDS011;42420;53.586;10.052;2023-01-31T13:37:22;8.07;;;1.77;;
56519;SDS011;42420;53.586;10.052;2023-01-31T13:43:31;8.20;;;1.60;;
56519;SDS011;42420;53.586;10.052;2023-01-31T14:08:55;9.30;;;2.00;;
56519;SDS011;42420;53.586;10.052;2023-01-31T14:33:49;11.93;;;1.75;;
56519;SDS011;42420;53.586;10.052;2023-01-31T14:39:28;9.40;;;2.30;;
56519;SDS011;42420;53.586;10.052;2023-01-31T14:44:37;9.48;;;2.40;;
56519;SDS011;42420;53.586;10.052;2023-01-31T14:55:10;14.27;;;3.72;;
56519;SDS011;42420;53.586;10.052;2023-01-31T15:00:25;9.60;;;2.75;;
56519;SDS011;42420;53.586;10.052;2023-01-31T15:16:01;16.67;;;2.80;;
56519;SDS011;42420;53.586;10.052;2023-01-31T15:53:39;24.10;;;3.10;;
56519;SDS011;42420;53.586;10.052;2023-01-31T16:05:36;16.88;;;3.15;;
56519;SDS011;42420;53.586;10.052;2023-01-31T17:01:28;16.25;;;2.63;;
56519;SDS011;42420;53.586;10.052;2023-01-31T17:07:51;14.48;;;2.92;;
56519;SDS011;42420;53.586;10.052;2023-01-31T17:13:42;18.95;;;3.05;;
56519;SDS011;42420;53.586;10.052;2023-01-31T21:20:01;24.58;;;3.75;;
56519;SDS011;42420;53.586;10.052;2023-01-31T21:31:39;25.63;;;4.85;;
56519;SDS011;42420;53.586;10.052;2023-01-31T21:56:35;22.25;;;4.30;;
56519;SDS011;42420;53.586;10.052;2023-01-31T22:08:25;32.53;;;5.15;;
56519;SDS011;42420;53.586;10.052;2023-01-31T22:20:26;31.77;;;4.95;;
56519;SDS011;42420;53.586;10.052;2023-01-31T22:26:08;23.38;;;4.38;;
56519;SDS011;42420;53.586;10.052;2023-01-31T22:32:16;28.08;;;4.72;;
56519;SDS011;42420;53.586;10.052;2023-01-31T22:37:32;25.95;;;4.85;;
56519;SDS011;42420;53.586;10.052;2023-01-31T22:43:19;28.95;;;4.03;;
56519;SDS011;42420;53.586;10.052;2023-01-31T22:49:36;20.38;;;4.05;;
56519;SDS011;42420;53.586;10.052;2023-01-31T22:54:59;20.38;;;3.35;;
56519;SDS011;42420;53.586;10.052;2023-01-31T23:00:21;24.77;;;3.22;;
56519;SDS011;42420;53.586;10.052;2023-01-31T23:06:01;23.63;;;3.85;;
56519;SDS011;42420;53.586;10.052;2023-01-31T23:11:08;24.77;;;3.83;;
56519;SDS011;42420;53.586;10.052;2023-01-31T23:22:35;22.67;;;3.67;;
56519;SDS011;42420;53.586;10.052;2023-01-31T23:28:17;26.50;;;4.32;;
56519;SDS011;42420;53.586;10.052;2023-01-31T23:34:07;24.08;;;3.92;;
56519;SDS011;42420;53.586;10.052;2023-01-31T23:39:07;24.55;;;4.22;;
56519;SDS011;42420;53.586;10.052;2023-01-31T23:44:04;21.48;;;3.38;;
56519;SDS011;42420;53.586;10.052;2023-01-31T23:55:05;28.77;;;3.88;;
